Yahata Maru — JL6477 — position and weather

sailwx.info

Track history (hours):
 
Tides and Currents Weather Stations Pressure Air Temp Water Temp Dewpoint Dewpoint Depression Visibility Wind Speed Wind Dir Waves Ship Positions

Yahata Maru

Last reported at 2017-Jun-26 12:53 UTC. Time now 2017-Jun-29 16:06 UTC.
Position N 34°34' E 134°47'.

Length 149 m; draft 4.7 m.

Type: Other ship. MMSI: 431400594.

Date/timePositionNaut miles runAvg speedWind from/ knotsBaromVisibWave heightAir tempDewpointWater temp
2017-Jun-26 12:53N 34°34' E 134°47'512.8
2017-Jun-26 12:29N 34°36' E 134°52'713.3
2017-Jun-26 11:59N 34°38' E 134°60'611.8
2017-Jun-26 11:30N 34°36' E 135°06'510.1
2017-Jun-26 11:00N 34°36' E 135°12'5 9.7
2017-Jun-26 10:31N 34°36' E 135°18'5 9.3
2017-Jun-26 10:00N 34°36' E 135°24'2 3.2
2017-Jun-26 09:30N 34°35' E 135°26'0 0.0
2017-Jun-26 09:00N 34°35' E 135°26'0 0.0
2017-Jun-26 08:30N 34°35' E 135°26'1 2.6
2017-Jun-26 08:00N 34°36' E 135°24'3 6.6
2017-Jun-26 07:30N 34°36' E 135°20'4 7.0
2017-Jun-26 07:00N 34°39' E 135°21'4 7.3
2017-Jun-26 06:30N 34°43' E 135°21'0 0.3
2017-Jun-26 05:57N 34°43' E 135°21'0 0.0
2017-Jun-26 05:27N 34°43' E 135°21'0 0.0
2017-Jun-26 04:51N 34°43' E 135°21'0 0.0
2017-Jun-26 04:21N 34°43' E 135°21'0 0.0
2017-Jun-26 03:57N 34°43' E 135°21'0 0.0
2017-Jun-26 03:27N 34°43' E 135°21'0 0.0
2017-Jun-26 02:57N 34°43' E 135°21'0 0.0
2017-Jun-26 02:30N 34°43' E 135°21'1 2.5
2017-Jun-26 02:00N 34°42' E 135°20'5 9.3
2017-Jun-26 01:30N 34°38' E 135°17'4 8.8
2017-Jun-26 01:00N 34°35' E 135°13'5 9.5
2017-Jun-26 00:30N 34°35' E 135°07'4 8.4
2017-Jun-26 00:00N 34°36' E 135°02'3 7.0
2017-Jun-25 23:30N 34°37' E 134°58'5 8.5
2017-Jun-25 22:58N 34°35' E 134°53'2 0.1
2017-Jun-24 21:21N 34°35' E 134°51'3 9.9
2017-Jun-24 21:00N 34°36' E 134°55'5 9.2
2017-Jun-24 20:30N 34°38' E 135°00'4 7.4
2017-Jun-24 20:00N 34°36' E 135°04'5 9.3
2017-Jun-24 19:30N 34°36' E 135°10'5 9.9
2017-Jun-24 19:00N 34°37' E 135°16'5 9.5
2017-Jun-24 18:30N 34°41' E 135°19'2 4.6
2017-Jun-24 18:00N 34°43' E 135°21'0 0.0
2017-Jun-24 17:30N 34°43' E 135°21'0 0.0
2017-Jun-24 16:57N 34°43' E 135°21'0 0.0
2017-Jun-24 16:27N 34°43' E 135°21'0 0.0
2017-Jun-24 15:57N 34°43' E 135°21'0 0.0
2017-Jun-24 15:27N 34°43' E 135°21'0 0.0
2017-Jun-24 14:57N 34°43' E 135°21'0 0.1
2017-Jun-24 14:01N 34°43' E 135°21'2 3.2
2017-Jun-24 13:30N 34°42' E 135°21'0 0.2
2017-Jun-24 12:57N 34°42' E 135°21'0 0.0
2017-Jun-24 12:27N 34°42' E 135°21'0 0.0
2017-Jun-24 11:57N 34°42' E 135°21'0 0.0
2017-Jun-24 11:27N 34°42' E 135°21'0 0.0
2017-Jun-24 10:51N 34°42' E 135°21'0 0.1
2017-Jun-24 10:30N 34°41' E 135°21'3 5.7
2017-Jun-24 10:00N 34°39' E 135°21'3 6.0
2017-Jun-24 09:30N 34°36' E 135°24'2 4.0
2017-Jun-24 09:00N 34°35' E 135°26'0 0.0
2017-Jun-24 08:25N 34°35' E 135°26'0 0.0
2017-Jun-24 07:55N 34°35' E 135°26'0 0.0
2017-Jun-24 07:19N 34°35' E 135°26'0 0.2
2017-Jun-24 07:00N 34°35' E 135°26'3 5.9
2017-Jun-24 06:30N 34°36' E 135°22'510.2
2017-Jun-24 06:00N 34°33' E 135°18'5 9.9
2017-Jun-24 05:30N 34°29' E 135°13'4 8.9
2017-Jun-24 05:00N 34°26' E 135°09'5 8.7
2017-Jun-24 04:28N 34°23' E 135°05'7 8.5
2017-Jun-24 03:39N 34°18' E 134°60'1 6.3
2017-Jun-24 03:27N 34°17' E 134°59'3 6.4
2017-Jun-24 02:57N 34°13' E 134°59'4 9.3
2017-Jun-24 02:31N 34°09' E 135°00'5 9.6
2017-Jun-24 02:00N 34°05' E 135°01'230 6.0
2017-Jun-22 11:41N 35°02' E 139°31'7 9.0
2017-Jun-22 10:53N 35°05' E 139°39'4 9.3
2017-Jun-22 10:30N 35°07' E 139°43'5 9.6
2017-Jun-22 10:00N 35°11' E 139°45'4 9.1
2017-Jun-22 09:30N 35°16' E 139°46'5 9.7
2017-Jun-22 09:01N 35°20' E 139°43'5 9.6
2017-Jun-22 08:31N 35°25' E 139°43'5 9.8
2017-Jun-22 08:01N 35°28' E 139°48'5 9.6
2017-Jun-22 07:30N 35°31' E 139°52'5 9.0
2017-Jun-22 07:00N 35°35' E 139°56'0 0.3
2017-Jun-22 06:30N 35°35' E 139°56'0 0.0
2017-Jun-22 05:59N 35°35' E 139°56'0 0.1
2017-Jun-22 05:29N 35°35' E 139°56'0 0.1
2017-Jun-22 04:59N 35°35' E 139°56'0 0.1
2017-Jun-22 04:29N 35°35' E 139°56'0 0.1
2017-Jun-22 03:56N 35°35' E 139°56'0 0.0
2017-Jun-22 03:23N 35°35' E 139°56'0 0.0
2017-Jun-21 19:32N 35°35' E 139°56'0 0.4
2017-Jun-21 19:26N 35°35' E 139°56'0 0.2
2017-Jun-21 19:00N 35°35' E 139°56'0 0.0
2017-Jun-21 18:29N 35°35' E 139°56'0 0.1
2017-Jun-21 17:58N 35°35' E 139°56'0 0.1
2017-Jun-21 17:22N 35°35' E 139°56'0 0.1
2017-Jun-21 16:59N 35°35' E 139°56'0 0.0
2017-Jun-21 16:29N 35°35' E 139°56'0 0.0
2017-Jun-21 15:56N 35°35' E 139°56'0 0.0
2017-Jun-21 15:29N 35°35' E 139°56'0 0.0
2017-Jun-21 14:59N 35°35' E 139°56'0 0.0
2017-Jun-21 13:56N 35°35' E 139°56'0 0.0
2017-Jun-21 13:29N 35°35' E 139°56'0 0.0
2017-Jun-21 12:58N 35°35' E 139°56'0 0.0
2017-Jun-21 12:23N 35°35' E 139°56'0 0.0
2017-Jun-21 11:59N 35°35' E 139°56'0 0.1
2017-Jun-21 11:28N 35°35' E 139°56'0 0.1
2017-Jun-21 10:59N 35°35' E 139°56'0 0.0
2017-Jun-21 10:23N 35°35' E 139°56'0 0.0
2017-Jun-21 09:26N 35°35' E 139°56'0 0.1
2017-Jun-21 08:50N 35°35' E 139°56'0 0.1
2017-Jun-21 07:50N 35°35' E 139°56'0 0.1
2017-Jun-21 07:29N 35°35' E 139°56'0 0.0
2017-Jun-21 06:57N 35°35' E 139°56'0 0.0
2017-Jun-21 06:30N 35°35' E 139°56'0 0.0
2017-Jun-21 06:00N 35°35' E 139°56'0 0.0
2017-Jun-21 05:29N 35°35' E 139°56'0 0.0
2017-Jun-21 04:59N 35°35' E 139°56'0 0.0
2017-Jun-21 04:23N 35°35' E 139°56'0 0.0
2017-Jun-21 03:55N 35°35' E 139°56'0 0.0
2017-Jun-21 03:30N 35°35' E 139°56'0 0.0
2017-Jun-21 02:59N 35°35' E 139°56'0 0.1
2017-Jun-21 02:29N 35°35' E 139°56'0 0.0
2017-Jun-21 01:57N 35°35' E 139°56'0 0.0
2017-Jun-21 01:23N 35°35' E 139°56'0 0.1
2017-Jun-21 00:58N 35°35' E 139°56'0 0.1
2017-Jun-21 00:28N 35°35' E 139°56'0 0.1
2017-Jun-20 23:53N 35°35' E 139°56'0 0.0
2017-Jun-20 22:55N 35°35' E 139°56'0 0.0
2017-Jun-20 21:14N 35°35' E 139°56'0 0.0
2017-Jun-20 20:59N 35°35' E 139°56'0 0.2
2017-Jun-20 20:01N 35°35' E 139°56'3 5.5
2017-Jun-20 19:30N 35°32' E 139°54'5 9.9
2017-Jun-20 19:00N 35°28' E 139°51'5 9.8
2017-Jun-20 18:30N 35°27' E 139°45'2 4.0
2017-Jun-20 18:01N 35°28' E 139°43'0 0.0
2017-Jun-20 17:29N 35°28' E 139°43'0 0.0
2017-Jun-20 16:56N 35°28' E 139°43'0 0.0
2017-Jun-20 16:29N 35°28' E 139°43'0 0.0
2017-Jun-20 15:59N 35°28' E 139°43'0 0.0
2017-Jun-20 15:30N 35°28' E 139°43'1 2.2
2017-Jun-20 15:00N 35°27' E 139°43'5 9.2
2017-Jun-20 14:30N 35°28' E 139°49'10 9.2
2017-Jun-20 13:28N 35°33' E 139°59'6 0.5
2017-Jun-20 01:29N 35°33' E 140°07'4 6.9
2017-Jun-20 00:54N 35°33' E 140°02'4 9.6
2017-Jun-20 00:30N 35°32' E 139°57'5 9.5
2017-Jun-20 00:00N 35°29' E 139°53'5 9.6
2017-Jun-19 23:30N 35°26' E 139°48'5 9.3
2017-Jun-19 23:00N 35°22' E 139°45'4 8.7
2017-Jun-19 22:30N 35°17' E 139°45'4 8.3
2017-Jun-19 22:00N 35°13' E 139°47'5 9.1
2017-Jun-19 21:29N 35°09' E 139°45'  
Track history (hours):
 
Tides and Currents Weather Stations Pressure Air Temp Water Temp Dewpoint Dewpoint Depression Visibility Wind Speed Wind Dir Waves Ship Positions

Yahata Maru

Last reported at 2017-Jun-26 12:53 UTC. Time now 2017-Jun-29 16:06 UTC.
Position N 34°34' E 134°47'.

Length 149 m; draft 4.7 m.

Type: Other ship. MMSI: 431400594.

Date/timePositionNaut miles runAvg speedWind from/ knotsBaromVisibWave heightAir tempDewpointWater temp
2017-Jun-26 12:53N 34°34' E 134°47'512.8
2017-Jun-26 12:29N 34°36' E 134°52'713.3
2017-Jun-26 11:59N 34°38' E 134°60'611.8
2017-Jun-26 11:30N 34°36' E 135°06'510.1
2017-Jun-26 11:00N 34°36' E 135°12'5 9.7
2017-Jun-26 10:31N 34°36' E 135°18'5 9.3
2017-Jun-26 10:00N 34°36' E 135°24'2 3.2
2017-Jun-26 09:30N 34°35' E 135°26'0 0.0
2017-Jun-26 09:00N 34°35' E 135°26'0 0.0
2017-Jun-26 08:30N 34°35' E 135°26'1 2.6
2017-Jun-26 08:00N 34°36' E 135°24'3 6.6
2017-Jun-26 07:30N 34°36' E 135°20'4 7.0
2017-Jun-26 07:00N 34°39' E 135°21'4 7.3
2017-Jun-26 06:30N 34°43' E 135°21'0 0.3
2017-Jun-26 05:57N 34°43' E 135°21'0 0.0
2017-Jun-26 05:27N 34°43' E 135°21'0 0.0
2017-Jun-26 04:51N 34°43' E 135°21'0 0.0
2017-Jun-26 04:21N 34°43' E 135°21'0 0.0
2017-Jun-26 03:57N 34°43' E 135°21'0 0.0
2017-Jun-26 03:27N 34°43' E 135°21'0 0.0
2017-Jun-26 02:57N 34°43' E 135°21'0 0.0
2017-Jun-26 02:30N 34°43' E 135°21'1 2.5
2017-Jun-26 02:00N 34°42' E 135°20'5 9.3
2017-Jun-26 01:30N 34°38' E 135°17'4 8.8
2017-Jun-26 01:00N 34°35' E 135°13'5 9.5
2017-Jun-26 00:30N 34°35' E 135°07'4 8.4
2017-Jun-26 00:00N 34°36' E 135°02'3 7.0
2017-Jun-25 23:30N 34°37' E 134°58'5 8.5
2017-Jun-25 22:58N 34°35' E 134°53'2 0.1
2017-Jun-24 21:21N 34°35' E 134°51'3 9.9
2017-Jun-24 21:00N 34°36' E 134°55'5 9.2
2017-Jun-24 20:30N 34°38' E 135°00'4 7.4
2017-Jun-24 20:00N 34°36' E 135°04'5 9.3
2017-Jun-24 19:30N 34°36' E 135°10'5 9.9
2017-Jun-24 19:00N 34°37' E 135°16'5 9.5
2017-Jun-24 18:30N 34°41' E 135°19'2 4.6
2017-Jun-24 18:00N 34°43' E 135°21'0 0.0
2017-Jun-24 17:30N 34°43' E 135°21'0 0.0
2017-Jun-24 16:57N 34°43' E 135°21'0 0.0
2017-Jun-24 16:27N 34°43' E 135°21'0 0.0
2017-Jun-24 15:57N 34°43' E 135°21'0 0.0
2017-Jun-24 15:27N 34°43' E 135°21'0 0.0
2017-Jun-24 14:57N 34°43' E 135°21'0 0.1
2017-Jun-24 14:01N 34°43' E 135°21'2 3.2
2017-Jun-24 13:30N 34°42' E 135°21'0 0.2
2017-Jun-24 12:57N 34°42' E 135°21'0 0.0
2017-Jun-24 12:27N 34°42' E 135°21'0 0.0
2017-Jun-24 11:57N 34°42' E 135°21'0 0.0
2017-Jun-24 11:27N 34°42' E 135°21'0 0.0
2017-Jun-24 10:51N 34°42' E 135°21'0 0.1
2017-Jun-24 10:30N 34°41' E 135°21'3 5.7
2017-Jun-24 10:00N 34°39' E 135°21'3 6.0
2017-Jun-24 09:30N 34°36' E 135°24'2 4.0
2017-Jun-24 09:00N 34°35' E 135°26'0 0.0
2017-Jun-24 08:25N 34°35' E 135°26'0 0.0
2017-Jun-24 07:55N 34°35' E 135°26'0 0.0
2017-Jun-24 07:19N 34°35' E 135°26'0 0.2
2017-Jun-24 07:00N 34°35' E 135°26'3 5.9
2017-Jun-24 06:30N 34°36' E 135°22'510.2
2017-Jun-24 06:00N 34°33' E 135°18'5 9.9
2017-Jun-24 05:30N 34°29' E 135°13'4 8.9
2017-Jun-24 05:00N 34°26' E 135°09'5 8.7
2017-Jun-24 04:28N 34°23' E 135°05'7 8.5
2017-Jun-24 03:39N 34°18' E 134°60'1 6.3
2017-Jun-24 03:27N 34°17' E 134°59'3 6.4
2017-Jun-24 02:57N 34°13' E 134°59'4 9.3
2017-Jun-24 02:31N 34°09' E 135°00'5 9.6
2017-Jun-24 02:00N 34°05' E 135°01'230 6.0
2017-Jun-22 11:41N 35°02' E 139°31'7 9.0
2017-Jun-22 10:53N 35°05' E 139°39'4 9.3
2017-Jun-22 10:30N 35°07' E 139°43'5 9.6
2017-Jun-22 10:00N 35°11' E 139°45'4 9.1
2017-Jun-22 09:30N 35°16' E 139°46'5 9.7
2017-Jun-22 09:01N 35°20' E 139°43'5 9.6
2017-Jun-22 08:31N 35°25' E 139°43'5 9.8
2017-Jun-22 08:01N 35°28' E 139°48'5 9.6
2017-Jun-22 07:30N 35°31' E 139°52'5 9.0
2017-Jun-22 07:00N 35°35' E 139°56'0 0.3
2017-Jun-22 06:30N 35°35' E 139°56'0 0.0
2017-Jun-22 05:59N 35°35' E 139°56'0 0.1
2017-Jun-22 05:29N 35°35' E 139°56'0 0.1
2017-Jun-22 04:59N 35°35' E 139°56'0 0.1
2017-Jun-22 04:29N 35°35' E 139°56'0 0.1
2017-Jun-22 03:56N 35°35' E 139°56'0 0.0
2017-Jun-22 03:23N 35°35' E 139°56'0 0.0
2017-Jun-21 19:32N 35°35' E 139°56'0 0.4
2017-Jun-21 19:26N 35°35' E 139°56'0 0.2
2017-Jun-21 19:00N 35°35' E 139°56'0 0.0
2017-Jun-21 18:29N 35°35' E 139°56'0 0.1
2017-Jun-21 17:58N 35°35' E 139°56'0 0.1
2017-Jun-21 17:22N 35°35' E 139°56'0 0.1
2017-Jun-21 16:59N 35°35' E 139°56'0 0.0
2017-Jun-21 16:29N 35°35' E 139°56'0 0.0
2017-Jun-21 15:56N 35°35' E 139°56'0 0.0
2017-Jun-21 15:29N 35°35' E 139°56'0 0.0
2017-Jun-21 14:59N 35°35' E 139°56'0 0.0
2017-Jun-21 13:56N 35°35' E 139°56'0 0.0
2017-Jun-21 13:29N 35°35' E 139°56'0 0.0
2017-Jun-21 12:58N 35°35' E 139°56'0 0.0
2017-Jun-21 12:23N 35°35' E 139°56'0 0.0
2017-Jun-21 11:59N 35°35' E 139°56'0 0.1
2017-Jun-21 11:28N 35°35' E 139°56'0 0.1
2017-Jun-21 10:59N 35°35' E 139°56'0 0.0
2017-Jun-21 10:23N 35°35' E 139°56'0 0.0
2017-Jun-21 09:26N 35°35' E 139°56'0 0.1
2017-Jun-21 08:50N 35°35' E 139°56'0 0.1
2017-Jun-21 07:50N 35°35' E 139°56'0 0.1
2017-Jun-21 07:29N 35°35' E 139°56'0 0.0
2017-Jun-21 06:57N 35°35' E 139°56'0 0.0
2017-Jun-21 06:30N 35°35' E 139°56'0 0.0
2017-Jun-21 06:00N 35°35' E 139°56'0 0.0
2017-Jun-21 05:29N 35°35' E 139°56'0 0.0
2017-Jun-21 04:59N 35°35' E 139°56'0 0.0
2017-Jun-21 04:23N 35°35' E 139°56'0 0.0
2017-Jun-21 03:55N 35°35' E 139°56'0 0.0
2017-Jun-21 03:30N 35°35' E 139°56'0 0.0
2017-Jun-21 02:59N 35°35' E 139°56'0 0.1
2017-Jun-21 02:29N 35°35' E 139°56'0 0.0
2017-Jun-21 01:57N 35°35' E 139°56'0 0.0
2017-Jun-21 01:23N 35°35' E 139°56'0 0.1
2017-Jun-21 00:58N 35°35' E 139°56'0 0.1
2017-Jun-21 00:28N 35°35' E 139°56'0 0.1
2017-Jun-20 23:53N 35°35' E 139°56'0 0.0
2017-Jun-20 22:55N 35°35' E 139°56'0 0.0
2017-Jun-20 21:14N 35°35' E 139°56'0 0.0
2017-Jun-20 20:59N 35°35' E 139°56'0 0.2
2017-Jun-20 20:01N 35°35' E 139°56'3 5.5
2017-Jun-20 19:30N 35°32' E 139°54'5 9.9
2017-Jun-20 19:00N 35°28' E 139°51'5 9.8
2017-Jun-20 18:30N 35°27' E 139°45'2 4.0
2017-Jun-20 18:01N 35°28' E 139°43'0 0.0
2017-Jun-20 17:29N 35°28' E 139°43'0 0.0
2017-Jun-20 16:56N 35°28' E 139°43'0 0.0
2017-Jun-20 16:29N 35°28' E 139°43'0 0.0
2017-Jun-20 15:59N 35°28' E 139°43'0 0.0
2017-Jun-20 15:30N 35°28' E 139°43'1 2.2
2017-Jun-20 15:00N 35°27' E 139°43'5 9.2
2017-Jun-20 14:30N 35°28' E 139°49'10 9.2
2017-Jun-20 13:28N 35°33' E 139°59'6 0.5
2017-Jun-20 01:29N 35°33' E 140°07'4 6.9
2017-Jun-20 00:54N 35°33' E 140°02'4 9.6
2017-Jun-20 00:30N 35°32' E 139°57'5 9.5
2017-Jun-20 00:00N 35°29' E 139°53'5 9.6
2017-Jun-19 23:30N 35°26' E 139°48'5 9.3
2017-Jun-19 23:00N 35°22' E 139°45'4 8.7
2017-Jun-19 22:30N 35°17' E 139°45'4 8.3
2017-Jun-19 22:00N 35°13' E 139°47'5 9.1
2017-Jun-19 21:29N 35°09' E 139°45'  

Dump ship's entire track history